Time;durP1;ratioP1;P1;durP2;ratioP2;P2;SDS_P1;SDS_P2;PMS_P1;PMS_P2;Temp;Humidity;BMP_temperature;BMP_pressure;BME280_temperature;BME280_humidity;BME280_pressure;Samples;Min_cycle;Max_cycle;Signal;HPM_P1;HPM_P2
2023/06/02 00:01:38;;;;;;;6.23;4.90;;;;;;;-143.84;40.82;44995.75;5112426;28;20447;-58
2023/06/02 00:04:06;;;;;;;5.57;5.07;;;;;;;-143.84;40.89;45014.78;5112430;28;20439;-58
2023/06/02 00:06:33;;;;;;;16.57;5.10;;;;;;;-143.84;39.92;45007.19;5112269;28;20516;-58
2023/06/02 00:09:03;;;;;;;6.10;4.40;;;;;;;-143.84;39.45;45022.41;5112234;28;20456;-58
2023/06/02 00:11:34;;;;;;;9.90;5.37;;;;;;;-143.84;39.82;45047.16;5112579;28;20464;-58
2023/06/02 00:14:05;;;;;;;17.10;4.67;;;;;;;-143.84;39.84;45016.69;5112285;28;20478;-58
2023/06/02 00:16:35;;;;;;;6.60;4.07;;;;;;;-143.84;39.54;44997.66;5112310;28;20445;-58
2023/06/02 00:19:02;;;;;;;8.50;4.70;;;;;;;-143.84;39.66;45033.84;5112392;28;20489;-58
2023/06/02 00:21:29;;;;;;;9.10;4.40;;;;;;;-143.84;39.50;45018.59;5112269;28;20502;-58
2023/06/02 00:23:56;;;;;;;4.93;4.43;;;;;;;-143.84;39.67;45056.69;5112256;28;20447;-58
2023/06/02 00:26:25;;;;;;;5.23;4.63;;;;;;;-143.84;39.63;45031.94;5111859;28;20482;-58
2023/06/02 00:28:52;;;;;;;10.63;5.10;;;;;;;-143.84;39.53;45037.66;5112140;28;21001;-58
2023/06/02 00:31:19;;;;;;;4.87;4.33;;;;;;;-143.84;39.59;45035.75;5112245;28;20467;-58
2023/06/02 00:33:48;;;;;;;7.13;4.93;;;;;;;-143.84;39.45;45039.53;5111821;28;20967;-58
2023/06/02 00:36:15;;;;;;;5.27;3.83;;;;;;;-143.84;39.18;45024.31;5111912;28;20447;-58
2023/06/02 00:38:43;;;;;;;7.00;4.20;;;;;;;-143.84;39.27;45014.78;5111557;28;20441;-58
2023/06/02 00:41:10;;;;;;;13.83;4.60;;;;;;;-143.84;39.35;45014.78;5111557;28;20432;-58
2023/06/02 00:43:37;;;;;;;5.70;4.10;;;;;;;-143.84;39.46;45016.69;5111704;28;20453;-58
2023/06/02 00:46:04;;;;;;;6.43;4.30;;;;;;;-143.84;39.26;45024.31;5111696;28;20475;-58
2023/06/02 00:48:32;;;;;;;4.03;3.63;;;;;;;-143.84;39.03;45012.88;5111695;28;20492;-58
2023/06/02 00:51:01;;;;;;;5.63;3.90;;;;;;;-143.84;39.09;45022.41;5111657;28;20500;-58
2023/06/02 00:53:29;;;;;;;7.27;4.43;;;;;;;-143.84;39.30;45016.69;5111619;28;20450;-58
2023/06/02 00:55:56;;;;;;;8.10;4.43;;;;;;;-143.84;39.16;45020.50;5111370;28;20435;-58
2023/06/02 00:58:25;;;;;;;4.93;4.43;;;;;;;-143.84;39.40;45035.75;5111721;28;20492;-58
2023/06/02 01:00:52;;;;;;;6.83;5.07;;;;;;;-143.84;39.54;45018.59;5111531;28;20481;-58
2023/06/02 01:03:21;;;;;;;4.17;3.77;;;;;;;-143.84;40.39;45022.41;5111178;28;20448;-58
2023/06/02 01:05:51;;;;;;;8.70;4.20;;;;;;;-143.84;40.74;45028.13;5111379;28;20483;-58
2023/06/02 01:08:21;;;;;;;6.17;5.27;;;;;;;-143.84;41.59;45030.03;5111225;28;20447;-58
2023/06/02 01:10:48;;;;;;;7.40;4.40;;;;;;;-143.84;41.92;44991.94;5092476;28;20453;-58
2023/06/02 01:13:16;;;;;;;9.10;4.63;;;;;;;-143.84;42.68;45030.03;5090657;28;20508;-58
2023/06/02 01:15:46;;;;;;;9.13;4.30;;;;;;;-143.84;41.55;45007.19;5090264;28;20548;-58
2023/06/02 01:18:14;;;;;;;10.40;4.63;;;;;;;-143.84;41.02;45014.78;5090804;28;20440;-58
2023/06/02 01:20:49;;;;;;;5.83;4.47;;;;;;;-143.84;39.93;45050.97;5090837;28;20504;-58
2023/06/02 01:23:21;;;;;;;11.67;4.67;;;;;;;-143.84;41.48;45030.03;5090338;28;20852;-58
2023/06/02 01:25:53;;;;;;;8.17;5.20;;;;;;;-143.84;44.60;45022.41;5090693;28;20511;-58
2023/06/02 01:28:20;;;;;;;6.97;4.90;;;;;;;-143.84;44.67;45030.03;5090659;28;20850;-58
2023/06/02 01:30:48;;;;;;;5.63;4.67;;;;;;;-143.84;45.02;45018.59;5090540;28;20445;-58
2023/06/02 01:33:22;;;;;;;6.43;4.73;;;;;;;-143.84;46.51;45031.94;5090406;28;20501;-58
2023/06/02 01:35:54;;;;;;;8.03;5.03;;;;;;;-143.84;43.11;45018.59;5090736;28;20559;-58
2023/06/02 01:38:23;;;;;;;4.97;3.67;;;;;;;-143.84;41.15;45030.03;5090487;28;20859;-58
2023/06/02 01:40:53;;;;;;;13.23;5.00;;;;;;;-143.84;40.03;45016.69;5090415;28;21395;-58
2023/06/02 01:43:20;;;;;;;5.00;3.60;;;;;;;-143.84;40.38;45035.75;5090209;28;20436;-58
2023/06/02 01:45:48;;;;;;;6.70;4.80;;;;;;;-143.84;40.08;45031.94;5089700;28;20475;-58
2023/06/02 01:48:15;;;;;;;9.33;4.43;;;;;;;-143.84;40.22;45016.69;5089718;28;20449;-58
2023/06/02 01:50:43;;;;;;;5.40;3.97;;;;;;;-143.84;40.17;45031.94;5089757;28;20460;-58
2023/06/02 01:53:11;;;;;;;8.37;4.77;;;;;;;-143.84;40.49;45041.44;5089912;28;20439;-58
2023/06/02 01:55:38;;;;;;;6.67;4.73;;;;;;;-143.84;41.44;45043.34;5089964;28;20851;-58
2023/06/02 01:58:07;;;;;;;12.70;4.90;;;;;;;-143.84;41.51;45022.41;5089695;28;20451;-58
2023/06/02 02:00:34;;;;;;;7.77;4.30;;;;;;;-143.84;40.24;45007.19;5090058;28;20793;-58
2023/06/02 02:03:02;;;;;;;5.20;4.47;;;;;;;-143.84;40.26;45035.75;5089834;28;20434;-58
2023/06/02 02:05:29;;;;;;;7.13;4.47;;;;;;;-143.84;40.40;45030.03;5089771;28;20791;-58
2023/06/02 02:07:57;;;;;;;6.80;4.30;;;;;;;-143.84;41.14;45035.75;5089741;28;20444;-59
2023/06/02 02:10:25;;;;;;;6.67;4.70;;;;;;;-143.84;42.09;45033.84;5089717;28;20431;-58
2023/06/02 02:12:53;;;;;;;7.80;5.10;;;;;;;-143.84;43.28;45037.66;5089499;28;20446;-58
2023/06/02 02:15:22;;;;;;;6.03;4.30;;;;;;;-143.84;43.13;45041.44;5089005;28;20492;-59
2023/06/02 02:17:49;;;;;;;9.13;4.97;;;;;;;-143.84;42.72;45010.97;5089598;28;20501;-58
2023/06/02 02:20:17;;;;;;;5.83;4.90;;;;;;;-143.84;42.59;45039.53;5089401;28;20489;-58
2023/06/02 02:22:45;;;;;;;6.60;4.80;;;;;;;-143.84;41.60;45033.84;5089270;28;21055;-59
2023/06/02 02:25:12;;;;;;;5.70;4.97;;;;;;;-143.84;41.20;45014.78;5089741;28;20439;-59
2023/06/02 02:27:39;;;;;;;10.83;4.57;;;;;;;-143.84;41.07;45050.97;5089227;28;20479;-59
2023/06/02 02:30:08;;;;;;;5.10;4.70;;;;;;;-143.84;41.59;45037.66;5089108;28;20449;-59
2023/06/02 02:32:39;;;;;;;5.20;4.70;;;;;;;-143.84;41.90;45030.03;5088843;28;20936;-58
2023/06/02 02:35:06;;;;;;;6.60;3.90;;;;;;;-143.84;41.96;45033.84;5089572;28;20443;-59
2023/06/02 02:37:35;;;;;;;5.50;5.00;;;;;;;-143.84;48.77;45030.03;5089304;28;20431;-59
2023/06/02 02:40:03;;;;;;;5.70;5.13;;;;;;;-143.84;64.09;45018.59;5089203;28;20933;-58
2023/06/02 02:42:30;;;;;;;7.10;5.50;;;;;;;-143.84;67.21;45043.34;5090476;28;20468;-58
2023/06/02 02:44:57;;;;;;;4.90;4.60;;;;;;;-143.84;67.14;45049.06;5089325;28;20997;-58
2023/06/02 02:47:24;;;;;;;11.60;4.60;;;;;;;-143.84;66.02;45033.84;5089327;28;20555;-58
2023/06/02 02:49:52;;;;;;;9.47;4.33;;;;;;;-143.84;64.25;45031.94;5089144;28;20438;-58
2023/06/02 02:52:20;;;;;;;4.77;4.33;;;;;;;-143.84;62.20;45033.84;5088925;28;20507;-58
2023/06/02 02:54:47;;;;;;;6.37;5.40;;;;;;;-143.84;62.20;45049.06;5089012;28;20471;-58
2023/06/02 02:57:14;;;;;;;7.60;4.90;;;;;;;-143.84;62.27;45045.25;5089084;28;20449;-58
2023/06/02 02:59:42;;;;;;;11.83;5.60;;;;;;;-143.84;62.86;45037.66;5089228;28;20549;-58
2023/06/02 03:02:09;;;;;;;4.77;4.30;;;;;;;-143.84;62.63;45037.66;5088925;28;20941;-58
2023/06/02 03:04:36;;;;;;;5.67;4.30;;;;;;;-143.84;60.15;45054.78;5088802;28;20505;-58
2023/06/02 03:07:05;;;;;;;4.53;4.17;;;;;;;-143.84;57.28;45060.50;5088273;28;20490;-59
2023/06/02 03:09:32;;;;;;;8.23;4.03;;;;;;;-143.84;57.09;45052.88;5089153;28;20600;-58
2023/06/02 03:11:59;;;;;;;7.70;5.87;;;;;;;-143.84;60.51;45033.84;5089250;28;20512;-58
2023/06/02 03:14:28;;;;;;;15.17;5.97;;;;;;;-143.84;63.77;45031.94;5088823;28;20554;-58
2023/06/02 03:16:56;;;;;;;5.50;5.00;;;;;;;-143.84;65.97;45026.22;5088885;28;20443;-58
2023/06/02 03:19:26;;;;;;;8.50;5.47;;;;;;;-143.84;66.19;45026.22;5088694;28;21282;-55
2023/06/02 03:21:56;;;;;;;6.90;4.80;;;;;;;-143.84;66.50;45028.13;5088971;28;20870;-55
2023/06/02 03:24:25;;;;;;;5.00;4.60;;;;;;;-143.84;65.65;45009.09;5088755;28;20516;-55
2023/06/02 03:26:55;;;;;;;6.20;5.50;;;;;;;-143.84;59.18;45030.03;5091708;28;20520;-55
2023/06/02 03:29:23;;;;;;;5.43;4.50;;;;;;;-143.84;58.60;45049.06;5092731;28;20428;-58
2023/06/02 03:31:52;;;;;;;13.43;5.00;;;;;;;-143.84;56.75;45009.09;5093049;28;20854;-57
2023/06/02 03:34:20;;;;;;;7.80;5.00;;;;;;;-143.84;55.17;45026.22;5092603;28;20438;-58
2023/06/02 03:36:48;;;;;;;8.60;4.80;;;;;;;-143.84;52.31;45026.22;5120187;27;20442;-58
2023/06/02 03:39:15;;;;;;;4.90;4.10;;;;;;;-143.84;48.35;45014.78;5132933;27;20502;-58
2023/06/02 03:41:44;;;;;;;20.77;4.40;;;;;;;-143.84;46.28;45024.31;5132196;27;20442;-58
2023/06/02 03:44:11;;;;;;;5.57;4.97;;;;;;;-143.84;46.61;44974.81;5132829;27;20776;-58
2023/06/02 03:46:38;;;;;;;5.50;4.63;;;;;;;-143.84;46.24;45010.97;5133311;27;20471;-58
2023/06/02 03:49:05;;;;;;;7.93;5.20;;;;;;;-143.84;46.03;44991.94;5132914;27;20439;-58
2023/06/02 03:51:33;;;;;;;5.20;4.07;;;;;;;-143.84;45.64;45014.78;5133016;27;20447;-58
2023/06/02 03:54:00;;;;;;;11.20;5.00;;;;;;;-143.84;43.98;44976.72;5133193;27;21278;-58
2023/06/02 03:56:27;;;;;;;14.53;4.60;;;;;;;-143.84;44.35;44984.31;5132893;27;20460;-58
2023/06/02 03:58:56;;;;;;;11.00;4.97;;;;;;;-143.84;44.09;44978.63;5132478;27;20462;-58
2023/06/02 04:01:23;;;;;;;7.27;5.57;;;;;;;-143.84;44.19;44961.47;5132952;27;20470;-58
2023/06/02 04:03:50;;;;;;;13.77;4.63;;;;;;;-143.84;44.52;44965.28;5132833;27;20440;-58
2023/06/02 04:06:17;;;;;;;5.63;4.60;;;;;;;-143.84;41.59;44976.72;5133025;27;20465;-58
2023/06/02 04:08:45;;;;;;;10.03;4.00;;;;;;;-143.84;41.38;44972.91;5133063;27;20448;-58
2023/06/02 04:11:12;;;;;;;7.03;5.20;;;;;;;-143.84;42.51;44995.75;5133179;27;20442;-58
2023/06/02 04:13:39;;;;;;;13.23;4.33;;;;;;;-143.84;42.04;44946.25;5132717;27;20526;-59
2023/06/02 04:16:08;;;;;;;4.83;4.33;;;;;;;-143.84;40.40;44974.81;5133079;27;20969;-58
2023/06/02 04:18:38;;;;;;;7.97;4.60;;;;;;;-143.84;40.66;44955.75;5132959;27;20447;-58
2023/06/02 04:21:05;;;;;;;5.70;4.27;;;;;;;-143.84;40.41;44972.91;5132990;27;20445;-58
2023/06/02 04:23:32;;;;;;;5.27;4.23;;;;;;;-143.84;39.75;44951.97;5132859;27;20844;-58
2023/06/02 04:25:59;;;;;;;7.73;4.30;;;;;;;-143.84;39.75;44936.72;5132855;27;20443;-58
2023/06/02 04:28:27;;;;;;;5.50;4.30;;;;;;;-143.84;40.51;44948.16;5132483;27;20508;-58
2023/06/02 04:30:55;;;;;;;5.67;4.60;;;;;;;-143.84;38.79;44944.34;5132613;27;20434;-58
2023/06/02 04:33:24;;;;;;;7.20;4.57;;;;;;;-143.84;38.78;44965.28;5132970;27;20471;-58
2023/06/02 04:35:51;;;;;;;16.37;5.13;;;;;;;-143.84;38.99;44957.66;5132419;27;20798;-58
2023/06/02 04:38:18;;;;;;;5.63;4.73;;;;;;;-143.84;38.41;44925.31;5132357;27;20500;-58
2023/06/02 04:40:46;;;;;;;10.70;4.53;;;;;;;-143.84;38.50;44925.31;5132440;27;20493;-58
2023/06/02 04:43:13;;;;;;;18.90;5.50;;;;;;;-143.84;39.19;44951.97;5125215;27;20824;-58
2023/06/02 04:45:43;;;;;;;7.57;4.47;;;;;;;-143.84;35.94;44906.25;5110998;28;20454;-58
2023/06/02 04:48:11;;;;;;;5.13;3.90;;;;;;;-143.84;35.36;44953.88;5111307;28;20716;-58
2023/06/02 04:50:40;;;;;;;12.80;4.90;;;;;;;-143.84;36.35;44931.00;5128734;27;20441;-58
2023/06/02 04:53:07;;;;;;;12.07;5.60;;;;;;;-143.84;37.24;44910.06;5121446;27;20480;-58
2023/06/02 04:55:34;;;;;;;12.00;7.50;;;;;;;-143.84;35.93;44934.81;5110433;28;20894;-58
2023/06/02 04:58:01;;;;;;;17.80;8.20;;;;;;;-143.84;36.15;44931.00;5111471;28;20449;-58
2023/06/02 05:00:28;;;;;;;7.57;6.77;;;;;;;-143.84;35.53;44934.81;5111449;28;20509;-58
2023/06/02 05:02:55;;;;;;;12.63;8.27;;;;;;;-143.84;36.00;44919.59;5111253;28;20445;-58
2023/06/02 05:05:23;;;;;;;21.57;9.50;;;;;;;-143.84;34.20;44934.81;5111354;28;20844;-58
2023/06/02 05:07:52;;;;;;;11.87;7.80;;;;;;;-143.84;35.05;44938.63;5111128;28;20485;-58
2023/06/02 05:10:19;;;;;;;10.93;7.43;;;;;;;-143.84;33.70;44927.19;5111369;28;20443;-58
2023/06/02 05:12:47;;;;;;;17.00;7.90;;;;;;;-143.84;34.34;44927.19;5111333;28;20521;-58
2023/06/02 05:15:14;;;;;;;21.13;7.00;;;;;;;-143.84;35.36;44915.78;5110930;28;20511;-58
2023/06/02 05:17:43;;;;;;;11.93;6.40;;;;;;;-143.84;34.51;44944.34;5110959;28;20448;-58
2023/06/02 05:20:11;;;;;;;8.20;6.63;;;;;;;-143.84;34.69;44940.53;5110656;28;20558;-58
2023/06/02 05:22:38;;;;;;;7.10;6.20;;;;;;;-143.84;34.86;44911.97;5111145;28;20438;-58
2023/06/02 05:25:08;;;;;;;9.00;6.10;;;;;;;-143.84;33.72;44910.06;5110626;28;20436;-58
2023/06/02 05:27:35;;;;;;;14.93;6.00;;;;;;;-143.84;34.32;44919.59;5110938;28;20473;-58
2023/06/02 05:30:02;;;;;;;11.33;6.60;;;;;;;-143.84;34.32;44913.88;5110878;28;20939;-58
2023/06/02 05:32:29;;;;;;;10.97;5.77;;;;;;;-143.84;33.51;44885.31;5110769;28;20440;-58
2023/06/02 05:34:56;;;;;;;15.10;6.30;;;;;;;-143.84;33.36;44873.88;5110789;28;20447;-58
2023/06/02 05:37:23;;;;;;;11.63;5.60;;;;;;;-143.84;33.74;44900.53;5110611;28;20439;-58
2023/06/02 05:39:52;;;;;;;7.00;5.40;;;;;;;-143.84;33.03;44932.91;5110684;28;20438;-58
2023/06/02 05:42:21;;;;;;;6.90;5.63;;;;;;;-143.84;33.46;44915.78;5110996;28;21164;-58
2023/06/02 05:44:48;;;;;;;9.10;6.23;;;;;;;-143.84;32.87;44904.34;5110748;28;20941;-58
2023/06/02 05:47:15;;;;;;;27.27;14.50;;;;;;;-143.84;32.65;44883.41;5110615;28;21063;-58
2023/06/02 05:49:42;;;;;;;15.93;7.50;;;;;;;-143.84;33.94;44900.53;5109528;28;20442;-58
2023/06/02 05:52:09;;;;;;;12.93;7.60;;;;;;;-143.84;33.42;44900.53;5110570;28;20492;-58
2023/06/02 05:54:36;;;;;;;13.80;7.00;;;;;;;-143.84;34.30;44879.59;5110624;28;20439;-58
2023/06/02 05:57:04;;;;;;;14.00;6.03;;;;;;;-143.84;34.94;44892.94;5110295;28;20435;-58
2023/06/02 05:59:33;;;;;;;15.50;7.20;;;;;;;-143.84;34.32;44877.69;5110345;28;20452;-58
2023/06/02 06:02:00;;;;;;;26.10;8.77;;;;;;;-143.84;35.12;44883.41;5109685;28;20447;-58
2023/06/02 06:04:27;;;;;;;16.63;9.20;;;;;;;-143.84;33.20;44891.03;5109917;28;20504;-58
2023/06/02 06:06:54;;;;;;;15.47;8.10;;;;;;;-143.84;33.09;44856.75;5110124;28;20513;-58
2023/06/02 06:09:21;;;;;;;36.70;18.47;;;;;;;-143.84;32.90;44891.03;5110052;28;20496;-58
2023/06/02 06:11:49;;;;;;;31.73;14.90;;;;;;;-143.84;33.35;44913.88;5109926;28;20945;-58
2023/06/02 06:14:16;;;;;;;11.70;6.43;;;;;;;-143.84;32.46;44866.28;5109560;28;20479;-58
2023/06/02 06:16:45;;;;;;;15.67;10.20;;;;;;;-143.84;32.77;44904.34;5110222;28;20435;-58
2023/06/02 06:19:12;;;;;;;21.67;9.13;;;;;;;-143.84;33.57;44896.75;5110190;28;20443;-58
2023/06/02 06:21:39;;;;;;;28.93;10.10;;;;;;;-143.84;34.25;44870.09;5110208;28;20489;-58
2023/06/02 06:24:07;;;;;;;17.73;9.27;;;;;;;-143.84;32.55;44883.41;5109971;28;20435;-58
2023/06/02 06:26:34;;;;;;;19.27;7.60;;;;;;;-143.84;32.95;44841.53;5109803;28;20438;-58
2023/06/02 06:29:03;;;;;;;15.63;6.53;;;;;;;-143.84;31.91;44875.78;5109289;28;20506;-58
2023/06/02 06:31:32;;;;;;;9.60;6.17;;;;;;;-143.84;31.24;44873.88;5109892;28;20444;-58
2023/06/02 06:34:01;;;;;;;11.33;7.40;;;;;;;-143.84;33.25;44891.03;5110012;28;20444;-58
2023/06/02 06:36:28;;;;;;;11.87;7.30;;;;;;;-143.84;30.94;44868.19;5109659;28;20447;-58
2023/06/02 06:38:55;;;;;;;20.37;12.10;;;;;;;-143.84;31.26;44870.09;5109362;28;20484;-58
2023/06/02 06:41:22;;;;;;;17.87;11.40;;;;;;;-143.84;31.35;44891.03;5109768;28;20439;-58
2023/06/02 06:43:49;;;;;;;15.53;7.83;;;;;;;-143.84;31.86;44887.22;5109417;28;20440;-58
2023/06/02 06:46:17;;;;;;;17.53;8.30;;;;;;;-143.84;31.86;44868.19;5109628;28;21085;-58
2023/06/02 06:48:44;;;;;;;9.20;6.73;;;;;;;-143.84;31.10;44891.03;5109615;28;20509;-58
2023/06/02 06:51:12;;;;;;;10.90;6.20;;;;;;;-143.84;32.56;44892.94;5109603;28;20880;-58
2023/06/02 06:53:40;;;;;;;20.00;9.23;;;;;;;-143.84;30.54;44902.44;5109347;28;20447;-58
2023/06/02 06:56:07;;;;;;;18.57;8.00;;;;;;;-143.84;30.40;44875.78;5109323;28;20438;-58
2023/06/02 06:58:34;;;;;;;14.13;5.63;;;;;;;-143.84;30.38;44891.03;5109532;28;20447;-58
2023/06/02 07:01:02;;;;;;;7.53;5.20;;;;;;;-143.84;30.24;44856.75;5109308;28;20532;-58
2023/06/02 07:03:29;;;;;;;15.43;6.77;;;;;;;-143.84;30.49;44894.84;5109463;28;20998;-58
2023/06/02 07:05:56;;;;;;;12.23;4.87;;;;;;;-143.84;29.64;44887.22;5109249;28;20439;-58
2023/06/02 07:08:25;;;;;;;10.33;5.73;;;;;;;-143.84;29.71;44902.44;5109336;28;21056;-58
2023/06/02 07:10:52;;;;;;;12.37;6.97;;;;;;;-143.84;30.11;44889.13;5109500;28;20452;-58
2023/06/02 07:13:19;;;;;;;23.23;6.93;;;;;;;-143.84;30.72;44908.16;5109296;28;20451;-58
2023/06/02 07:15:47;;;;;;;11.70;7.00;;;;;;;-143.84;31.14;44902.44;5109349;28;21374;-58
2023/06/02 07:18:14;;;;;;;11.97;5.30;;;;;;;-143.84;29.88;44879.59;5109280;28;20439;-58
2023/06/02 07:20:41;;;;;;;7.00;5.27;;;;;;;-143.84;29.00;44871.97;5109235;28;20435;-58
2023/06/02 07:23:09;;;;;;;5.30;4.40;;;;;;;-143.84;30.11;44879.59;5109252;28;20499;-58
2023/06/02 07:25:37;;;;;;;7.30;5.23;;;;;;;-143.84;28.90;44911.97;5109228;28;20431;-58
2023/06/02 07:28:05;;;;;;;10.43;4.67;;;;;;;-143.84;29.50;44894.84;5109188;28;20543;-58
2023/06/02 07:30:32;;;;;;;6.33;4.90;;;;;;;-143.84;29.52;44896.75;5109100;28;20957;-58
2023/06/02 07:33:00;;;;;;;11.83;6.10;;;;;;;-143.84;29.54;44889.13;5109078;28;20439;-58
2023/06/02 07:35:27;;;;;;;7.40;4.40;;;;;;;-143.84;28.36;44887.22;5109116;28;20805;-58
2023/06/02 07:37:54;;;;;;;4.90;4.50;;;;;;;-143.84;28.96;44898.66;5109104;28;20431;-58
2023/06/02 07:40:22;;;;;;;11.60;4.90;;;;;;;-143.84;29.51;44885.31;5109153;28;20826;-58
2023/06/02 07:42:50;;;;;;;11.60;8.37;;;;;;;-143.84;31.06;44915.78;5108930;28;20465;-58
2023/06/02 07:45:17;;;;;;;12.40;7.07;;;;;;;-143.84;30.86;44892.94;5109100;28;20438;-58
2023/06/02 07:47:45;;;;;;;9.13;8.00;;;;;;;-143.84;31.66;44911.97;5108759;28;20482;-58
2023/06/02 07:50:12;;;;;;;8.77;6.03;;;;;;;-143.84;30.83;44906.25;5108764;28;20471;-58
2023/06/02 07:52:39;;;;;;;8.63;5.57;;;;;;;-143.84;30.10;44885.31;5109095;28;20504;-58
2023/06/02 07:55:07;;;;;;;5.93;5.03;;;;;;;-143.84;30.68;44908.16;5108733;28;20440;-58
2023/06/02 07:57:34;;;;;;;7.50;5.90;;;;;;;-143.84;30.60;44911.97;5109084;28;20492;-58
2023/06/02 08:00:12;;;;;;;11.77;4.83;;;;;;;-143.84;31.24;44892.94;5108932;28;21000;-58
2023/06/02 08:02:40;;;;;;;11.00;5.97;;;;;;;-143.84;30.35;44906.25;5108971;28;20443;-58
2023/06/02 08:05:08;;;;;;;7.00;5.30;;;;;;;-143.84;30.01;44891.03;5109036;28;20494;-58
2023/06/02 08:07:35;;;;;;;6.00;5.03;;;;;;;-143.84;30.01;44900.53;5108561;28;20437;-58
2023/06/02 08:10:02;;;;;;;12.90;5.00;;;;;;;-143.84;29.20;44913.88;5109187;28;21191;-58
2023/06/02 08:12:30;;;;;;;7.13;4.87;;;;;;;-143.84;30.48;44915.78;5111250;28;20528;-58
2023/06/02 08:14:57;;;;;;;7.60;6.07;;;;;;;-143.84;30.80;44925.31;5112617;28;20481;-58
2023/06/02 08:17:29;;;;;;;6.07;4.60;;;;;;;-143.84;30.09;44866.28;5112304;28;20492;-58
2023/06/02 08:19:56;;;;;;;5.77;5.20;;;;;;;-143.84;29.38;44881.50;5112300;28;20446;-58
2023/06/02 08:22:25;;;;;;;8.60;4.67;;;;;;;-143.84;29.67;44875.78;5112263;28;21020;-58
2023/06/02 08:24:53;;;;;;;9.07;4.33;;;;;;;-143.84;30.06;44906.25;5112187;28;20445;-58
2023/06/02 08:27:21;;;;;;;5.07;4.63;;;;;;;-143.84;29.82;44906.25;5112141;28;20448;-58
2023/06/02 08:29:49;;;;;;;9.30;4.33;;;;;;;-143.84;30.64;44906.25;5112226;28;20434;-58
2023/06/02 08:32:17;;;;;;;8.53;4.20;;;;;;;-143.84;31.03;44917.69;5112159;28;20441;-58
2023/06/02 08:34:47;;;;;;;5.80;5.17;;;;;;;-143.84;29.93;44921.50;5112176;28;20934;-58
2023/06/02 08:37:16;;;;;;;5.83;4.43;;;;;;;-143.84;29.98;44877.69;5112181;28;20443;-58
2023/06/02 08:39:44;;;;;;;6.17;4.37;;;;;;;-143.84;30.35;44906.25;5111966;28;21209;-58
2023/06/02 08:42:12;;;;;;;8.17;4.93;;;;;;;-143.84;30.95;44917.69;5111995;28;20435;-58
2023/06/02 08:44:40;;;;;;;7.90;5.17;;;;;;;-143.84;31.11;44923.41;5111837;28;20439;-58
2023/06/02 08:47:11;;;;;;;6.37;5.23;;;;;;;-143.84;29.58;44900.53;5112293;28;21220;-58
2023/06/02 08:49:42;;;;;;;8.70;5.07;;;;;;;-143.84;30.39;44896.75;5111798;28;20484;-58
2023/06/02 08:52:15;;;;;;;8.67;4.57;;;;;;;-143.84;30.57;44938.63;5111647;28;20463;-58
2023/06/02 08:54:43;;;;;;;6.67;4.43;;;;;;;-143.84;30.24;44921.50;5111514;28;20447;-58
2023/06/02 08:57:13;;;;;;;5.60;4.30;;;;;;;-143.84;30.13;44898.66;5111637;28;20438;-58
2023/06/02 08:59:41;;;;;;;11.20;5.37;;;;;;;-143.84;31.57;44911.97;5111777;28;20857;-58
2023/06/02 09:02:08;;;;;;;9.50;8.10;;;;;;;-143.84;32.89;44923.41;5111684;28;20497;-58
2023/06/02 09:04:35;;;;;;;4.33;3.97;;;;;;;-143.84;30.67;44915.78;5111643;28;20447;-58
2023/06/02 09:07:22;;;;;;;6.27;4.80;;;;;;;-143.84;30.75;44929.09;5111339;28;20444;-58
2023/06/02 09:09:51;;;;;;;14.80;10.43;;;;;;;-143.84;31.48;44908.16;5111502;28;20532;-58
2023/06/02 09:12:19;;;;;;;9.80;8.10;;;;;;;-143.84;30.10;44921.50;5111481;28;20443;-58
2023/06/02 09:14:48;;;;;;;8.63;7.50;;;;;;;-143.84;30.82;44917.69;5111090;28;20517;-58
2023/06/02 09:17:30;;;;;;;14.57;10.00;;;;;;;-143.84;31.27;44925.31;5111273;28;20436;-58
2023/06/02 09:19:59;;;;;;;4.63;3.63;;;;;;;-143.84;30.44;44908.16;5107852;28;20512;-57
2023/06/02 09:22:27;;;;;;;5.90;4.80;;;;;;;-143.84;30.85;44923.41;5111044;28;20440;-58
2023/06/02 09:24:56;;;;;;;8.90;6.57;;;;;;;-143.84;30.90;44940.53;5111136;28;20489;-58
2023/06/02 09:27:25;;;;;;;7.37;4.97;;;;;;;-143.84;30.69;44911.97;5111205;28;20440;-58
2023/06/02 09:30:00;;;;;;;9.40;6.90;;;;;;;-143.84;30.21;44919.59;5111077;28;20505;-58
2023/06/02 09:32:27;;;;;;;13.70;8.50;;;;;;;-143.84;30.75;44938.63;5110765;28;20451;-58
2023/06/02 09:34:54;;;;;;;6.27;4.83;;;;;;;-143.84;30.61;44942.44;5110805;28;20480;-58
2023/06/02 09:37:23;;;;;;;5.17;4.33;;;;;;;-143.84;31.49;44929.09;5111031;28;20854;-58
2023/06/02 09:39:53;;;;;;;11.87;8.10;;;;;;;-143.84;31.80;44944.34;5110736;28;20527;-58
2023/06/02 09:42:21;;;;;;;16.33;5.90;;;;;;;-143.84;31.33;44906.25;5110660;28;20506;-58
2023/06/02 09:45:05;;;;;;;4.70;4.00;;;;;;;-143.84;31.66;44932.91;5110594;28;21020;-58
2023/06/02 09:47:38;;;;;;;7.80;4.53;;;;;;;-143.84;32.64;44921.50;5110492;28;20436;-58
2023/06/02 09:50:06;;;;;;;9.83;5.10;;;;;;;-143.84;32.34;44921.50;5110462;28;20484;-58
2023/06/02 09:52:33;;;;;;;4.87;4.47;;;;;;;-143.84;32.44;44913.88;5110384;28;20444;-58
2023/06/02 09:55:03;;;;;;;6.20;4.77;;;;;;;-143.84;31.65;44902.44;5110595;28;20443;-58
2023/06/02 09:57:32;;;;;;;4.23;3.87;;;;;;;-143.84;32.26;44934.81;5110283;28;20540;-58
2023/06/02 10:00:00;;;;;;;7.23;4.50;;;;;;;-143.84;31.85;44923.41;5110617;28;20920;-58
2023/06/02 10:02:27;;;;;;;8.90;4.40;;;;;;;-143.84;32.83;44917.69;5110538;28;20448;-58
2023/06/02 10:04:54;;;;;;;6.70;4.70;;;;;;;-143.84;29.77;44942.44;5110487;28;20448;-58
2023/06/02 10:07:36;;;;;;;6.33;4.37;;;;;;;-143.84;31.11;44913.88;5110103;28;20445;-58
2023/06/02 10:10:19;;;;;;;6.17;4.07;;;;;;;-143.84;28.13;44925.31;5110327;28;20536;-58
2023/06/02 10:13:21;;;;;;;5.60;3.33;;;;;;;-143.84;30.52;44921.50;5110395;28;20448;-58
2023/06/02 10:15:58;;;;;;;7.33;4.50;;;;;;;-143.84;31.24;44894.84;5076576;28;20480;-58
2023/06/02 10:18:57;;;;;;;17.57;11.20;;;;;;;-143.84;32.00;44946.25;5110015;28;20453;-57
2023/06/02 10:21:42;;;;;;;11.20;7.00;;;;;;;-143.84;31.95;44929.09;5065128;28;20499;-58
2023/06/02 10:24:21;;;;;;;5.63;5.03;;;;;;;-143.84;34.18;44938.63;5109970;28;20958;-58
2023/06/02 10:27:05;;;;;;;4.90;4.40;;;;;;;-143.84;35.15;44932.91;5110372;28;20515;-58
2023/06/02 10:29:34;;;;;;;5.63;4.10;;;;;;;-143.84;33.89;44892.94;5110163;28;20476;-58
2023/06/02 10:32:01;;;;;;;9.40;4.40;;;;;;;-143.84;33.71;44925.31;5109842;28;20518;-58
2023/06/02 10:34:38;;;;;;;5.53;4.00;;;;;;;-143.84;35.24;44931.00;5109172;28;20443;-58
2023/06/02 10:37:18;;;;;;;5.60;3.90;;;;;;;-143.84;33.92;44919.59;5109695;28;20435;-58
2023/06/02 10:39:52;;;;;;;9.97;3.80;;;;;;;-143.84;35.21;44946.25;5109544;28;20460;-58
2023/06/02 10:42:22;;;;;;;4.30;4.00;;;;;;;-143.84;33.38;44946.25;5110079;28;20444;-58
2023/06/02 10:44:51;;;;;;;5.53;3.30;;;;;;;-143.84;34.15;44942.44;5109712;28;20454;-57
2023/06/02 10:47:35;;;;;;;7.73;3.73;;;;;;;-143.84;33.43;44953.88;5109870;28;20929;-58
2023/06/02 10:50:04;;;;;;;12.70;3.80;;;;;;;-143.84;34.57;44927.19;5109410;28;20567;-58
2023/06/02 10:52:32;;;;;;;5.10;3.27;;;;;;;-143.84;39.09;44940.53;5109716;28;20503;-58
2023/06/02 10:55:28;;;;;;;4.43;3.70;;;;;;;-143.84;37.44;44955.75;5109550;28;20435;-58
2023/06/02 10:57:58;;;;;;;5.00;3.93;;;;;;;-143.84;39.66;44923.41;5109315;28;20471;-58
2023/06/02 11:00:52;;;;;;;10.93;3.50;;;;;;;-143.84;37.81;44957.66;5109318;28;20508;-58
2023/06/02 11:03:33;;;;;;;4.40;4.00;;;;;;;-143.84;37.31;44955.75;5109359;28;20443;-57
2023/06/02 11:06:18;;;;;;;7.90;4.03;;;;;;;-143.84;39.89;44980.53;5109071;28;20442;-58
2023/06/02 11:08:46;;;;;;;12.10;4.10;;;;;;;-143.84;40.20;44944.34;5109053;28;20481;-58
2023/06/02 11:11:13;;;;;;;4.90;3.50;;;;;;;-143.84;38.26;44934.81;5109118;28;20873;-58
2023/06/02 11:14:00;;;;;;;3.87;3.57;;;;;;;-143.84;39.65;44948.16;5109170;28;20476;-58
2023/06/02 11:16:28;;;;;;;12.03;4.67;;;;;;;-143.84;35.98;44978.63;5109181;28;20447;-58
2023/06/02 11:18:55;;;;;;;15.07;8.90;;;;;;;-143.84;38.81;44946.25;5109252;28;20530;-58
2023/06/02 11:21:24;;;;;;;84.23;42.60;;;;;;;-143.84;36.80;44974.81;5109156;28;20428;-58
2023/06/02 11:23:51;;;;;;;39.30;21.17;;;;;;;-143.84;37.78;44946.25;5109422;28;20435;-58